Time;durP1;ratioP1;P1;durP2;ratioP2;P2;SDS_P1;SDS_P2;PMS_P1;PMS_P2;Temp;Humidity;BMP_temperature;BMP_pressure;BME280_temperature;BME280_humidity;BME280_pressure;Samples;Min_cycle;Max_cycle;Signal;HPM_P1;HPM_P2
2023/07/13 00:00:26;;;;;;;2.60;2.50;;;;;;;22.98;81.49;97126.16;5065752;28;20045;-61
2023/07/13 00:02:53;;;;;;;2.67;2.58;;;;;;;22.89;81.34;97109.06;5066319;28;20071;-62
2023/07/13 00:05:22;;;;;;;2.70;2.60;;;;;;;22.96;81.63;97116.53;5066124;28;20052;-62
2023/07/13 00:07:50;;;;;;;2.30;2.25;;;;;;;23.09;80.95;97128.63;5065911;28;20136;-60
2023/07/13 00:10:17;;;;;;;2.53;2.42;;;;;;;23.06;80.88;97123.91;5065376;28;20055;-61
2023/07/13 00:12:44;;;;;;;2.60;2.50;;;;;;;22.97;81.68;97127.38;5065751;28;20059;-60
2023/07/13 00:15:22;;;;;;;2.50;2.40;;;;;;;22.68;81.58;97073.00;5065934;28;20422;-62
2023/07/13 00:17:50;;;;;;;2.20;2.20;;;;;;;22.99;81.89;97129.75;5064380;28;20359;-60
2023/07/13 00:20:18;;;;;;;2.63;2.53;;;;;;;22.96;81.38;97105.22;5065842;28;20048;-61
2023/07/13 00:22:44;;;;;;;2.78;2.67;;;;;;;23.01;80.59;97115.97;5066355;28;20390;-60
2023/07/13 00:25:11;;;;;;;2.45;2.35;;;;;;;22.94;81.86;97127.47;5064006;28;20052;-60
2023/07/13 00:27:39;;;;;;;2.90;2.80;;;;;;;22.63;81.77;97072.75;5048956;28;20227;-63
2023/07/13 00:30:06;;;;;;;2.35;2.30;;;;;;;22.89;82.30;97113.94;5044007;28;20499;-61
2023/07/13 00:32:33;;;;;;;2.50;2.40;;;;;;;22.74;82.32;97090.16;5044464;28;20065;-60
2023/07/13 00:35:00;;;;;;;2.60;2.50;;;;;;;22.81;81.81;97089.97;5044212;28;20167;-61
2023/07/13 00:37:27;;;;;;;2.80;2.70;;;;;;;22.77;81.98;97078.75;5045441;28;20057;-61
2023/07/13 00:39:54;;;;;;;2.40;2.35;;;;;;;22.33;82.29;97024.00;5045289;28;20069;-62
2023/07/13 00:42:20;;;;;;;2.55;2.45;;;;;;;22.54;83.31;97076.22;5043644;28;20060;-62
2023/07/13 00:45:06;;;;;;;2.50;2.40;;;;;;;22.76;82.89;97091.31;5045834;28;20072;-59
2023/07/13 00:47:33;;;;;;;2.30;2.30;;;;;;;22.60;83.24;97079.28;5045436;28;20110;-62
2023/07/13 00:50:00;;;;;;;2.53;2.42;;;;;;;22.61;83.39;97083.69;5045449;28;20132;-60
2023/07/13 00:52:28;;;;;;;2.10;2.10;;;;;;;22.20;83.53;97033.66;5044952;28;20045;-62
2023/07/13 00:54:56;;;;;;;2.60;2.50;;;;;;;21.88;84.05;97030.91;5045153;28;20049;-60
2023/07/13 00:57:24;;;;;;;2.60;2.50;;;;;;;22.10;84.27;97035.53;5045213;28;20143;-61
2023/07/13 00:59:55;;;;;;;2.47;2.38;;;;;;;22.34;85.16;97090.50;5045163;28;20051;-60
2023/07/13 01:02:22;;;;;;;2.35;2.30;;;;;;;22.11;84.86;97054.03;5043495;28;20323;-61
2023/07/13 01:04:49;;;;;;;2.25;2.25;;;;;;;21.95;84.68;97034.34;5034407;28;20068;-60
2023/07/13 01:07:18;;;;;;;2.50;2.40;;;;;;;22.02;85.60;97053.91;5059034;28;20049;-62
2023/07/13 01:09:45;;;;;;;2.53;2.42;;;;;;;21.91;86.06;97033.66;5045210;28;20049;-60
2023/07/13 01:12:13;;;;;;;2.63;2.53;;;;;;;22.22;85.79;97068.63;5043703;28;20416;-63
2023/07/13 01:14:40;;;;;;;2.38;2.30;;;;;;;22.10;85.60;97055.28;5044937;28;20474;-62
2023/07/13 01:17:10;;;;;;;2.55;2.45;;;;;;;22.34;85.60;97089.69;5042843;28;20049;-63
2023/07/13 01:19:42;;;;;;;2.22;2.22;;;;;;;22.29;85.64;97071.28;5044962;28;20049;-60
2023/07/13 01:22:11;;;;;;;2.40;2.30;;;;;;;22.42;84.95;97080.56;5043944;28;20136;-61
2023/07/13 01:24:42;;;;;;;2.63;2.53;;;;;;;22.18;84.62;97044.59;5044803;28;20064;-60
2023/07/13 01:27:11;;;;;;;2.30;2.30;;;;;;;22.47;83.71;97087.69;5056781;28;20044;-61
2023/07/13 01:29:41;;;;;;;2.75;2.65;;;;;;;22.39;84.13;97081.47;5069731;28;20052;-60
2023/07/13 01:32:23;;;;;;;2.50;2.40;;;;;;;22.31;84.80;97082.91;5063024;28;20045;-60
2023/07/13 01:34:54;;;;;;;2.50;2.40;;;;;;;22.15;84.77;97060.38;5063094;28;20446;-62
2023/07/13 01:37:23;;;;;;;2.10;2.10;;;;;;;22.07;84.26;97050.53;5063148;28;20537;-61
2023/07/13 01:39:49;;;;;;;2.40;2.30;;;;;;;22.13;84.46;97057.22;5062808;28;20515;-61
2023/07/13 01:42:16;;;;;;;2.45;2.38;;;;;;;22.16;85.53;97078.91;5064273;28;20067;-63
2023/07/13 01:44:43;;;;;;;2.35;2.35;;;;;;;21.88;86.35;97051.47;5062797;28;20052;-60
2023/07/13 01:47:10;;;;;;;2.38;2.28;;;;;;;22.09;85.65;97079.09;5064451;28;20102;-61
2023/07/13 01:49:37;;;;;;;2.25;2.25;;;;;;;21.84;86.50;97056.44;5063124;28;20058;-59
2023/07/13 01:52:04;;;;;;;2.15;2.15;;;;;;;21.69;86.53;97023.34;5064430;28;20056;-60
2023/07/13 01:54:33;;;;;;;2.30;2.28;;;;;;;22.07;86.41;97077.94;5064641;28;20057;-60
2023/07/13 01:57:00;;;;;;;2.60;2.50;;;;;;;21.97;86.03;97077.00;5064172;28;20110;-60
2023/07/13 01:59:27;;;;;;;2.15;2.15;;;;;;;21.63;87.12;97031.56;5064453;28;20048;-59
2023/07/13 02:01:54;;;;;;;2.10;2.10;;;;;;;21.94;86.97;97077.91;5064008;28;20139;-60
2023/07/13 02:04:21;;;;;;;2.60;2.50;;;;;;;21.90;86.93;97076.41;5063975;28;20059;-59
2023/07/13 02:06:47;;;;;;;2.20;2.20;;;;;;;21.85;86.67;97069.28;5063899;28;20075;-60
2023/07/13 02:09:14;;;;;;;2.50;2.40;;;;;;;21.90;87.14;97070.75;5064669;28;20782;-60
2023/07/13 02:11:41;;;;;;;2.35;2.30;;;;;;;21.77;88.05;97073.53;5063718;28;20052;-60
2023/07/13 02:14:07;;;;;;;2.30;2.30;;;;;;;21.41;88.66;97033.38;5064056;28;20057;-63
2023/07/13 02:16:34;;;;;;;2.47;2.38;;;;;;;21.78;88.08;97069.47;5063997;28;20068;-60
2023/07/13 02:19:02;;;;;;;2.58;2.47;;;;;;;21.81;88.06;97071.41;5064159;28;20053;-60
2023/07/13 02:21:28;;;;;;;2.30;2.30;;;;;;;21.57;87.52;97050.28;5064163;28;20040;-60
2023/07/13 02:23:57;;;;;;;2.60;2.50;;;;;;;21.38;87.60;97044.72;5063566;28;20146;-62
2023/07/13 02:26:24;;;;;;;1.90;1.90;;;;;;;21.70;88.73;97068.06;5056606;28;20550;-59
2023/07/13 02:28:51;;;;;;;2.60;2.50;;;;;;;21.64;88.28;97047.25;5043459;28;20439;-60
2023/07/13 02:31:17;;;;;;;2.47;2.38;;;;;;;21.43;88.40;97019.63;5043989;28;20115;-62
2023/07/13 02:33:44;;;;;;;2.53;2.42;;;;;;;21.53;89.05;97035.47;5045036;28;20458;-61
2023/07/13 02:36:12;;;;;;;2.28;2.28;;;;;;;21.72;88.71;97081.72;5047762;28;20055;-60
2023/07/13 02:38:39;;;;;;;2.90;2.80;;;;;;;21.68;88.69;97086.63;5047544;28;20087;-63
2023/07/13 02:41:08;;;;;;;2.33;2.30;;;;;;;21.46;88.29;97041.28;5047135;28;20542;-60
2023/07/13 02:43:38;;;;;;;2.67;2.58;;;;;;;21.68;88.24;97087.44;5046390;28;20049;-60
2023/07/13 02:46:06;;;;;;;2.60;2.50;;;;;;;21.53;89.05;97086.19;5045996;28;20053;-60
2023/07/13 02:48:35;;;;;;;2.33;2.30;;;;;;;21.28;89.96;97052.22;5047866;28;20107;-61
2023/07/13 02:51:02;;;;;;;2.00;2.00;;;;;;;21.49;89.85;97084.72;5047392;28;20649;-60
2023/07/13 02:53:29;;;;;;;2.03;2.03;;;;;;;21.50;89.48;97087.09;5047629;28;20091;-60
2023/07/13 02:55:56;;;;;;;2.20;2.20;;;;;;;21.39;89.41;97075.28;5038753;28;20049;-60
2023/07/13 02:58:23;;;;;;;2.30;2.30;;;;;;;21.49;89.16;97096.78;5047260;28;20049;-62
2023/07/13 03:00:50;;;;;;;2.20;2.20;;;;;;;21.44;89.25;97088.06;5047140;28;20051;-60
2023/07/13 03:03:17;;;;;;;2.00;2.00;;;;;;;21.35;90.04;97083.06;5047325;28;20049;-60
2023/07/13 03:05:50;;;;;;;2.30;2.30;;;;;;;21.50;89.88;97091.94;5047144;28;20055;-61
2023/07/13 03:08:18;;;;;;;2.30;2.30;;;;;;;21.39;89.47;97069.66;5047320;28;20041;-62
2023/07/13 03:10:45;;;;;;;2.20;2.20;;;;;;;21.28;89.24;97062.69;5047075;28;20108;-60
2023/07/13 03:13:11;;;;;;;2.03;2.03;;;;;;;21.32;89.31;97069.84;5046935;28;20508;-61
2023/07/13 03:15:38;;;;;;;2.10;2.10;;;;;;;21.39;88.82;97057.56;5047049;28;20508;-63
2023/07/13 03:18:05;;;;;;;2.00;2.00;;;;;;;21.20;89.15;97028.25;5047299;28;20431;-60
2023/07/13 03:20:34;;;;;;;2.25;2.25;;;;;;;21.05;88.64;96984.78;5046944;28;20067;-60
2023/07/13 03:23:00;;;;;;;2.17;2.17;;;;;;;21.67;88.26;97068.16;5046730;28;20052;-62
2023/07/13 03:25:27;;;;;;;2.63;2.53;;;;;;;21.58;87.84;97043.38;5061853;28;20567;-61
2023/07/13 03:27:54;;;;;;;2.20;2.20;;;;;;;21.81;87.29;97062.97;5060276;28;20057;-60
2023/07/13 03:30:20;;;;;;;2.63;2.53;;;;;;;21.96;86.39;97075.44;5067126;28;20060;-60
2023/07/13 03:32:47;;;;;;;2.50;2.40;;;;;;;22.10;85.44;97080.69;5065265;28;20053;-61
2023/07/13 03:35:14;;;;;;;2.05;2.05;;;;;;;21.84;84.71;97050.78;5066923;28;20247;-60
2023/07/13 03:37:42;;;;;;;2.45;2.35;;;;;;;22.16;85.19;97087.34;5066812;28;20047;-59
2023/07/13 03:40:10;;;;;;;2.67;2.58;;;;;;;21.90;85.17;97026.44;5066263;28;20079;-60
2023/07/13 03:42:37;;;;;;;2.40;2.30;;;;;;;22.33;85.03;97088.91;5066435;28;20060;-61
2023/07/13 03:45:04;;;;;;;2.60;2.50;;;;;;;22.42;84.31;97091.88;5065787;28;20427;-60
2023/07/13 03:47:30;;;;;;;2.47;2.38;;;;;;;22.37;84.16;97077.50;5066386;28;20594;-60
2023/07/13 03:49:57;;;;;;;2.30;2.30;;;;;;;22.51;83.41;97079.13;5066521;28;20130;-61
2023/07/13 03:52:24;;;;;;;2.40;2.38;;;;;;;22.39;83.23;97061.72;5064780;28;20052;-59
2023/07/13 03:54:51;;;;;;;2.40;2.35;;;;;;;22.43;83.06;97059.56;5066265;28;20052;-60
2023/07/13 03:57:18;;;;;;;2.42;2.33;;;;;;;22.14;83.59;97024.16;5066223;28;20068;-61
2023/07/13 03:59:45;;;;;;;2.45;2.38;;;;;;;22.49;82.82;97054.94;5066336;28;20040;-60
2023/07/13 04:02:12;;;;;;;2.30;2.30;;;;;;;22.57;82.87;97051.94;5066110;28;20131;-60
2023/07/13 04:04:40;;;;;;;2.70;2.60;;;;;;;23.03;82.06;97085.25;5065983;28;20074;-62
2023/07/13 04:07:10;;;;;;;2.60;2.50;;;;;;;23.20;81.15;97100.84;5064713;28;20052;-60
2023/07/13 04:09:37;;;;;;;2.63;2.53;;;;;;;23.09;80.33;97072.13;5066531;28;20053;-60
2023/07/13 04:12:04;;;;;;;2.70;2.60;;;;;;;23.27;79.62;97089.31;5065729;28;20040;-60
2023/07/13 04:14:31;;;;;;;2.25;2.22;;;;;;;23.26;79.76;97088.53;5066135;28;20416;-62
2023/07/13 04:16:57;;;;;;;2.65;2.55;;;;;;;23.23;79.82;97077.31;5046081;28;20063;-60
2023/07/13 04:19:24;;;;;;;2.65;2.55;;;;;;;23.46;79.94;97096.78;5045991;28;20057;-61
2023/07/13 04:21:51;;;;;;;2.80;2.70;;;;;;;23.47;78.98;97075.75;5045875;28;20053;-60
2023/07/13 04:24:17;;;;;;;2.90;2.80;;;;;;;23.53;79.28;97105.03;5045815;28;20056;-60
2023/07/13 04:26:44;;;;;;;2.20;2.20;;;;;;;23.43;79.13;97080.72;5061986;28;20448;-59
2023/07/13 04:29:11;;;;;;;2.65;2.55;;;;;;;23.62;78.39;97088.16;5065419;28;20058;-61
2023/07/13 04:31:37;;;;;;;3.00;2.90;;;;;;;23.70;78.07;97073.31;5064312;28;20049;-63
2023/07/13 04:34:04;;;;;;;2.80;2.70;;;;;;;23.95;76.77;97078.13;5065605;28;20063;-59
2023/07/13 04:36:31;;;;;;;3.15;3.05;;;;;;;23.75;76.24;97029.53;5065358;28;20136;-60
2023/07/13 04:38:58;;;;;;;2.65;2.55;;;;;;;24.39;75.82;97102.44;5065224;28;20059;-60
2023/07/13 04:41:25;;;;;;;3.15;3.05;;;;;;;24.48;74.98;97088.38;5063974;28;20573;-59
2023/07/13 04:43:51;;;;;;;3.00;2.90;;;;;;;24.56;73.99;97080.38;5065471;28;20056;-60
2023/07/13 04:46:22;;;;;;;3.10;3.00;;;;;;;24.25;73.62;97035.00;5065466;28;20756;-59
2023/07/13 04:48:50;;;;;;;3.20;3.10;;;;;;;24.87;72.44;97093.38;5065023;28;20552;-59
2023/07/13 04:51:18;;;;;;;3.10;3.00;;;;;;;25.08;71.06;97103.91;5064884;28;20052;-61
2023/07/13 04:53:44;;;;;;;3.30;3.20;;;;;;;25.17;71.29;97092.59;5064629;28;20052;-62
2023/07/13 04:56:11;;;;;;;3.25;3.15;;;;;;;25.36;71.07;97087.81;5065028;28;20135;-59
2023/07/13 04:58:40;;;;;;;3.20;3.10;;;;;;;25.35;70.98;97082.59;5062821;28;20502;-59
2023/07/13 05:01:08;;;;;;;3.47;3.38;;;;;;;25.65;70.00;97110.13;5064919;28;20076;-60
2023/07/13 05:03:35;;;;;;;3.30;3.20;;;;;;;25.68;69.56;97095.00;5065117;28;20059;-60
2023/07/13 05:06:06;;;;;;;3.58;3.47;;;;;;;25.82;69.37;97100.09;5064819;28;20434;-60
2023/07/13 05:08:33;;;;;;;3.60;3.50;;;;;;;25.99;69.49;97098.53;5064820;28;20059;-60
2023/07/13 05:11:01;;;;;;;3.28;3.17;;;;;;;26.14;68.87;97108.06;5064329;28;20049;-59
2023/07/13 05:13:28;;;;;;;3.58;3.47;;;;;;;26.31;68.67;97101.59;5063671;28;20063;-59
2023/07/13 05:16:01;;;;;;;3.60;3.50;;;;;;;26.37;67.17;97090.38;5064554;28;20105;-59
2023/07/13 05:18:29;;;;;;;3.97;3.88;;;;;;;26.51;65.66;97089.75;5064654;28;20040;-60
2023/07/13 05:21:05;;;;;;;3.50;3.40;;;;;;;26.76;65.24;97109.34;5064253;28;20064;-61
2023/07/13 05:23:34;;;;;;;3.75;3.65;;;;;;;26.83;65.60;97105.38;5064539;28;20127;-59
2023/07/13 05:26:01;;;;;;;3.63;3.53;;;;;;;27.00;65.57;97110.25;5064553;28;20052;-60
2023/07/13 05:28:30;;;;;;;3.30;3.20;;;;;;;27.06;65.96;97102.66;5048120;28;20521;-60
2023/07/13 05:30:57;;;;;;;3.75;3.65;;;;;;;27.27;65.04;97112.28;5043098;28;20052;-59
2023/07/13 05:33:25;;;;;;;4.00;3.90;;;;;;;27.46;64.73;97108.84;5029910;28;20511;-60
2023/07/13 05:35:51;;;;;;;4.00;3.90;;;;;;;27.40;63.83;97116.47;5052224;28;20055;-64
2023/07/13 05:38:18;;;;;;;3.85;3.75;;;;;;;27.17;63.16;97020.47;5062092;28;20424;-62
2023/07/13 05:40:46;;;;;;;3.83;3.72;;;;;;;27.70;62.94;97094.66;5060479;28;20155;-64
2023/07/13 05:43:13;;;;;;;4.25;4.15;;;;;;;28.00;62.76;97108.63;5060882;28;20052;-63
2023/07/13 05:45:41;;;;;;;4.53;4.43;;;;;;;27.88;62.20;97078.28;5060663;28;20778;-62
2023/07/13 05:48:08;;;;;;;3.85;3.75;;;;;;;27.90;62.51;97115.63;5061995;28;20582;-62
2023/07/13 05:50:34;;;;;;;3.92;3.83;;;;;;;27.88;61.37;97106.78;5062162;28;20127;-64
2023/07/13 05:53:01;;;;;;;4.38;4.28;;;;;;;27.95;61.46;97089.34;5063444;28;20135;-62
2023/07/13 05:55:28;;;;;;;4.28;4.18;;;;;;;28.32;61.36;97101.28;5061512;28;20052;-66
2023/07/13 05:57:55;;;;;;;4.15;4.05;;;;;;;28.29;62.42;97125.03;5063833;28;20059;-67
2023/07/13 06:00:21;;;;;;;4.47;4.38;;;;;;;27.91;63.45;97048.88;5064020;28;20081;-66
2023/07/13 06:02:48;;;;;;;4.13;4.03;;;;;;;28.22;63.95;97113.22;5061815;28;20099;-63
2023/07/13 06:05:15;;;;;;;4.22;4.13;;;;;;;27.67;63.02;96968.31;5062821;28;20147;-69
2023/07/13 06:07:42;;;;;;;4.30;4.20;;;;;;;28.77;62.23;97091.56;5047479;28;20060;-69
2023/07/13 06:10:09;;;;;;;4.68;4.57;;;;;;;29.13;61.22;97099.78;5054830;28;20482;-63
2023/07/13 06:12:36;;;;;;;4.43;4.32;;;;;;;28.73;59.87;97011.91;5062219;28;20056;-72
2023/07/13 06:15:03;;;;;;;4.75;4.65;;;;;;;29.58;58.60;97094.31;5062310;28;20040;-61
2023/07/13 06:17:30;;;;;;;4.32;4.22;;;;;;;29.70;57.07;97105.94;5062396;28;20056;-65
2023/07/13 06:19:57;;;;;;;4.10;4.00;;;;;;;29.71;57.68;97114.00;5060713;28;20123;-64
2023/07/13 06:22:24;;;;;;;4.28;4.18;;;;;;;29.48;58.09;97106.34;5061968;28;20056;-63
2023/07/13 06:24:51;;;;;;;4.35;4.25;;;;;;;29.22;59.23;97085.41;5060677;28;20057;-64
2023/07/13 06:27:18;;;;;;;3.97;3.88;;;;;;;29.82;58.97;97091.31;5062431;28;20058;-66
2023/07/13 06:29:45;;;;;;;4.60;4.50;;;;;;;30.15;57.22;97103.22;5063617;28;20540;-64
2023/07/13 06:32:12;;;;;;;4.32;4.22;;;;;;;29.95;56.81;97008.91;5063419;28;20053;-66
2023/07/13 06:34:38;;;;;;;4.80;4.70;;;;;;;30.50;55.85;97055.34;5063738;28;20052;-66
2023/07/13 06:37:09;;;;;;;4.90;4.80;;;;;;;30.71;54.58;97031.13;5063372;28;20060;-65
2023/07/13 06:39:36;;;;;;;4.57;4.47;;;;;;;30.87;54.35;97072.69;5063226;28;20067;-62
2023/07/13 06:42:05;;;;;;;4.82;4.72;;;;;;;30.93;54.63;97094.34;5062447;28;20583;-63
2023/07/13 06:44:32;;;;;;;4.47;4.38;;;;;;;31.08;53.85;97064.84;5062567;28;20079;-68
2023/07/13 06:46:59;;;;;;;4.82;4.72;;;;;;;31.25;53.95;97097.25;5062162;28;20052;-64
2023/07/13 06:49:26;;;;;;;4.80;4.70;;;;;;;31.31;52.63;97089.53;5060794;28;20511;-62
2023/07/13 06:51:52;;;;;;;4.50;4.40;;;;;;;31.02;51.89;97027.56;5061238;28;20415;-64
2023/07/13 06:54:19;;;;;;;4.88;4.78;;;;;;;31.15;51.10;97024.28;5060581;28;20501;-62
2023/07/13 06:56:46;;;;;;;4.70;4.60;;;;;;;31.26;51.40;97035.81;5060695;28;20060;-68
2023/07/13 06:59:12;;;;;;;5.10;5.00;;;;;;;31.61;50.32;97090.81;5062860;28;20657;-68
2023/07/13 07:01:39;;;;;;;5.03;4.93;;;;;;;31.31;49.85;97069.47;5062957;28;20049;-69
2023/07/13 07:04:08;;;;;;;4.72;4.63;;;;;;;31.41;50.17;97088.06;5061494;28;20064;-62
2023/07/13 07:06:35;;;;;;;5.03;4.93;;;;;;;31.39;49.63;97079.19;5062433;28;20053;-62
2023/07/13 07:09:01;;;;;;;4.68;4.57;;;;;;;31.32;50.06;97039.53;5062950;28;20048;-69
2023/07/13 07:11:28;;;;;;;4.85;4.75;;;;;;;30.98;50.73;97037.66;5062782;28;20167;-64
2023/07/13 07:13:55;;;;;;;4.72;4.63;;;;;;;31.39;49.53;97021.91;5061502;28;20049;-68
2023/07/13 07:16:25;;;;;;;5.00;4.90;;;;;;;31.94;48.99;97091.06;5060813;28;20059;-64
2023/07/13 07:18:52;;;;;;;4.78;4.68;;;;;;;31.55;50.33;97081.41;5052843;28;20426;-71
2023/07/13 07:21:18;;;;;;;4.70;4.60;;;;;;;31.07;50.05;96983.09;5053893;28;20127;-67
2023/07/13 07:23:46;;;;;;;4.80;4.70;;;;;;;31.73;49.01;97018.75;5065228;28;20052;-64
2023/07/13 07:26:13;;;;;;;4.60;4.50;;;;;;;31.85;49.01;97011.03;5066350;28;20557;-69
2023/07/13 07:28:39;;;;;;;4.65;4.55;;;;;;;32.35;47.98;97057.91;5066623;28;20559;-74
2023/07/13 07:31:11;;;;;;;4.60;4.50;;;;;;;32.58;48.01;97076.81;5057811;28;20072;-65
2023/07/13 07:33:41;;;;;;;5.05;4.95;;;;;;;31.78;48.98;97022.94;5061449;28;20438;-64
2023/07/13 07:36:08;;;;;;;5.03;4.93;;;;;;;31.63;48.58;96996.56;5064024;28;20130;-65
2023/07/13 07:38:37;;;;;;;4.95;4.85;;;;;;;31.88;47.33;96967.03;5062518;28;20056;-66
2023/07/13 07:41:05;;;;;;;4.90;4.80;;;;;;;32.06;47.40;96955.09;5063712;28;20527;-66
2023/07/13 07:43:35;;;;;;;5.00;4.90;;;;;;;32.69;47.00;97022.31;5065318;28;20048;-66
2023/07/13 07:46:02;;;;;;;4.65;4.55;;;;;;;32.59;47.34;97029.63;5064164;28;20482;-64
2023/07/13 07:48:30;;;;;;;5.03;4.93;;;;;;;33.18;47.45;97056.09;5066131;28;20063;-61
2023/07/13 07:50:56;;;;;;;5.15;5.05;;;;;;;33.50;47.73;97043.06;5065197;28;20049;-61
2023/07/13 07:53:23;;;;;;;5.43;5.32;;;;;;;33.93;48.38;97051.38;5064740;28;20135;-60
2023/07/13 07:55:51;;;;;;;5.72;5.53;;;;;;;34.17;47.92;97042.94;5065676;28;20051;-66
2023/07/13 07:58:20;;;;;;;5.43;5.32;;;;;;;34.54;46.11;97054.88;5066485;28;20128;-65
2023/07/13 08:00:50;;;;;;;5.43;5.32;;;;;;;34.40;46.70;97033.72;5064440;28;20049;-64
2023/07/13 08:03:20;;;;;;;5.82;5.63;;;;;;;34.64;44.48;97021.56;5063553;28;20049;-65
2023/07/13 08:05:52;;;;;;;5.13;5.03;;;;;;;34.83;44.69;97042.66;5064972;28;20082;-67
2023/07/13 08:08:22;;;;;;;5.70;5.50;;;;;;;33.60;45.87;96974.59;5063426;28;20048;-67
2023/07/13 08:10:49;;;;;;;5.55;5.40;;;;;;;33.78;45.53;96951.81;5064060;28;20048;-65
2023/07/13 08:13:16;;;;;;;5.10;5.00;;;;;;;34.41;44.20;97018.03;5061258;28;20056;-67
2023/07/13 08:15:43;;;;;;;4.80;4.70;;;;;;;34.44;46.22;97047.84;5063600;28;20049;-65
2023/07/13 08:18:10;;;;;;;4.70;4.60;;;;;;;34.71;45.33;97036.19;5062066;28;20051;-63
2023/07/13 08:20:38;;;;;;;4.93;4.82;;;;;;;34.82;44.75;97046.84;5062942;28;20045;-67
2023/07/13 08:23:05;;;;;;;5.30;5.20;;;;;;;34.97;40.54;97050.19;5061402;28;20065;-64
2023/07/13 08:25:32;;;;;;;5.07;4.97;;;;;;;34.73;40.19;97061.56;5065059;28;20429;-64
2023/07/13 08:27:59;;;;;;;5.50;5.38;;;;;;;34.90;40.33;97022.72;5064984;28;20053;-68
2023/07/13 08:30:26;;;;;;;6.13;5.93;;;;;;;34.87;39.95;96997.09;5064035;28;20139;-63
2023/07/13 08:32:53;;;;;;;6.03;5.82;;;;;;;35.34;39.84;97041.81;5063866;28;20052;-66
2023/07/13 08:35:20;;;;;;;5.75;5.55;;;;;;;35.28;38.89;97038.19;5063171;28;20143;-69
2023/07/13 08:37:47;;;;;;;5.75;5.55;;;;;;;35.13;38.90;96971.50;5057487;28;20045;-66
2023/07/13 08:40:14;;;;;;;5.05;4.95;;;;;;;35.36;37.45;97021.09;5062694;28;20052;-62
2023/07/13 08:42:57;;;;;;;5.38;5.28;;;;;;;35.02;38.35;96962.97;5063373;28;20063;-64
2023/07/13 08:45:31;;;;;;;5.43;5.32;;;;;;;35.54;37.72;97038.50;5057610;28;20078;-63
2023/07/13 08:48:11;;;;;;;5.32;5.22;;;;;;;35.50;37.50;97049.56;5062763;28;20044;-66
2023/07/13 08:51:01;;;;;;;5.10;5.00;;;;;;;35.67;37.75;97040.75;5054146;28;20110;-64
2023/07/13 08:53:36;;;;;;;5.22;5.13;;;;;;;34.72;37.98;96950.59;5064132;28;20083;-64
2023/07/13 08:56:09;;;;;;;5.13;5.03;;;;;;;35.07;38.79;97005.34;5063614;28;20555;-67
2023/07/13 08:58:38;;;;;;;5.85;5.65;;;;;;;34.87;37.66;96922.22;5065023;28;20143;-67
2023/07/13 09:01:23;;;;;;;5.03;4.93;;;;;;;35.73;37.62;97039.38;5064880;28;20059;-64
2023/07/13 09:04:13;;;;;;;5.07;4.97;;;;;;;35.31;36.61;96956.44;5063508;28;20052;-66
2023/07/13 09:06:55;;;;;;;5.22;5.13;;;;;;;35.92;36.98;97022.94;5064318;28;20468;-64
2023/07/13 09:09:27;;;;;;;5.40;5.30;;;;;;;35.77;38.52;97037.00;5062975;28;20052;-64
2023/07/13 09:12:24;;;;;;;4.70;4.60;;;;;;;35.54;37.31;97009.69;5063595;28;20071;-65
2023/07/13 09:14:54;;;;;;;5.03;4.93;;;;;;;35.63;37.25;96983.38;5054182;28;20316;-68
2023/07/13 09:17:28;;;;;;;4.80;4.70;;;;;;;35.06;36.15;96957.72;5059921;28;20592;-63
2023/07/13 09:20:10;;;;;;;5.68;5.47;;;;;;;35.81;37.24;97017.28;5060255;28;20494;-63
2023/07/13 09:22:38;;;;;;;5.38;5.28;;;;;;;35.57;35.65;96932.88;5062609;28;20049;-64
2023/07/13 09:25:34;;;;;;;4.97;4.88;;;;;;;35.94;35.37;96956.84;5060609;28;20109;-66
2023/07/13 09:28:17;;;;;;;5.13;5.03;;;;;;;36.08;35.27;96996.03;5056899;28;20056;-63
2023/07/13 09:30:54;;;;;;;5.90;5.70;;;;;;;36.39;34.73;96997.50;5059460;28;20052;-63
2023/07/13 09:33:22;;;;;;;5.03;4.93;;;;;;;36.63;34.74;97011.09;5062022;28;20055;-66
2023/07/13 09:35:49;;;;;;;5.22;5.13;;;;;;;36.31;34.74;96967.72;5061913;28;20040;-67
2023/07/13 09:38:18;;;;;;;5.60;5.40;;;;;;;36.70;34.95;96993.91;5063299;28;20045;-62
2023/07/13 09:41:08;;;;;;;5.50;5.35;;;;;;;36.80;34.02;96997.97;5062002;28;20048;-65
2023/07/13 09:43:36;;;;;;;5.60;5.43;;;;;;;36.62;33.95;96974.88;5063419;28;20044;-67
2023/07/13 09:46:04;;;;;;;5.70;5.50;;;;;;;36.53;34.51;96945.06;5062178;28;20056;-65
2023/07/13 09:48:36;;;;;;;5.32;5.22;;;;;;;36.27;35.20;96990.28;5059049;28;20045;-64
2023/07/13 09:51:13;;;;;;;5.57;5.43;;;;;;;36.44;34.57;96970.66;5060579;28;20072;-67
2023/07/13 09:53:43;;;;;;;6.03;5.82;;;;;;;36.52;34.91;96993.94;5063530;28;20495;-66
2023/07/13 09:56:24;;;;;;;5.75;5.55;;;;;;;36.20;35.72;96968.59;5056283;28;20044;-66
2023/07/13 09:58:51;;;;;;;6.07;5.88;;;;;;;36.64;35.08;96995.31;5058326;28;20458;-64
2023/07/13 10:01:40;;;;;;;5.90;5.70;;;;;;;35.77;34.46;96843.78;5063609;28;20048;-65
2023/07/13 10:04:12;;;;;;;5.78;5.57;;;;;;;36.83;34.80;96984.56;5062761;28;20113;-65
2023/07/13 10:06:43;;;;;;;5.18;5.07;;;;;;;36.79;34.57;96990.66;5058248;28;20045;-67
2023/07/13 10:09:14;;;;;;;6.28;6.07;;;;;;;36.62;35.85;96964.09;5043912;28;20056;-63
2023/07/13 10:11:41;;;;;;;5.70;5.50;;;;;;;36.53;34.31;96914.66;5058274;28;20051;-67
2023/07/13 10:14:15;;;;;;;5.38;5.28;;;;;;;37.13;34.69;96985.16;5063933;28;20060;-68
2023/07/13 10:16:44;;;;;;;5.85;5.65;;;;;;;37.13;34.86;96979.38;5062905;28;20446;-68
2023/07/13 10:19:34;;;;;;;5.55;5.40;;;;;;;37.00;34.31;96970.63;5051287;28;20051;-62
2023/07/13 10:22:13;;;;;;;6.10;5.90;;;;;;;36.97;35.33;96971.75;5052172;28;20152;-63
2023/07/13 10:24:41;;;;;;;5.82;5.63;;;;;;;37.22;34.78;96976.06;5061141;28;20048;-64
2023/07/13 10:27:13;;;;;;;5.43;5.30;;;;;;;37.35;34.41;96967.47;5060753;28;20048;-65
2023/07/13 10:30:00;;;;;;;;;;;;;;;37.33;34.94;96964.31;5061675;28;20174;-69
2023/07/13 10:32:27;;;;;;;5.30;5.20;;;;;;;36.53;35.13;96884.44;5055332;28;20403;-64
2023/07/13 10:34:56;;;;;;;5.72;5.53;;;;;;;36.75;35.15;96948.94;5044901;28;20045;-63
2023/07/13 10:37:27;;;;;;;5.78;5.57;;;;;;;37.17;34.53;96962.47;5060156;28;20052;-67
2023/07/13 10:39:56;;;;;;;5.28;5.18;;;;;;;36.83;34.95;96903.69;5056262;28;20474;-67
2023/07/13 10:42:32;;;;;;;5.85;5.65;;;;;;;36.89;34.75;96889.94;5057028;28;20049;-67
2023/07/13 10:44:58;;;;;;;5.65;5.45;;;;;;;37.41;34.26;96959.47;5061806;28;20044;-64
2023/07/13 10:47:26;;;;;;;5.38;5.25;;;;;;;37.06;34.87;96910.66;5063309;28;20479;-65
2023/07/13 10:49:57;;;;;;;5.43;5.30;;;;;;;36.72;34.49;96857.66;5046192;28;20110;-64
2023/07/13 10:52:50;;;;;;;6.00;5.80;;;;;;;37.43;33.43;96956.81;5043519;28;20079;-64
2023/07/13 10:55:37;;;;;;;5.82;5.63;;;;;;;37.39;34.50;96950.56;5045622;28;20064;-63
2023/07/13 10:58:23;;;;;;;5.82;5.63;;;;;;;37.42;34.59;96961.78;5062044;28;20131;-65
2023/07/13 11:01:10;;;;;;;5.55;5.38;;;;;;;37.55;33.12;96943.69;5046843;28;20458;-64
2023/07/13 11:03:43;;;;;;;5.07;4.97;;;;;;;37.55;34.04;96952.38;5047431;28;20061;-64
2023/07/13 11:06:13;;;;;;;;;;;;;;;37.64;34.57;96937.47;5047425;28;20119;-64
2023/07/13 11:08:43;;;;;;;5.70;5.50;;;;;;;37.73;33.95;96940.72;5047342;28;19928;-65
2023/07/13 11:11:31;;;;;;;5.50;5.38;;;;;;;37.83;33.40;96936.06;5050368;28;20079;-64
2023/07/13 11:14:04;;;;;;;5.78;5.57;;;;;;;37.87;33.44;96903.91;5062439;28;20048;-63
2023/07/13 11:16:36;;;;;;;5.28;5.18;;;;;;;38.21;33.30;96945.31;5067025;28;20442;-66
2023/07/13 11:19:03;;;;;;;5.32;5.22;;;;;;;38.42;32.33;96943.25;5065140;28;20127;-64
2023/07/13 11:21:32;;;;;;;5.80;5.60;;;;;;;37.99;32.92;96896.53;5065048;28;20045;-65
2023/07/13 11:24:14;;;;;;;5.70;5.50;;;;;;;38.47;32.69;96939.47;5066489;28;20574;-65
2023/07/13 11:26:51;;;;;;;6.05;5.85;;;;;;;38.74;31.70;96928.59;5066584;28;20048;-65
2023/07/13 11:29:17;;;;;;;6.43;6.22;;;;;;;38.73;32.52;96927.81;5066719;28;20052;-67
2023/07/13 11:31:57;;;;;;;6.10;5.90;;;;;;;38.72;32.73;96932.06;5066669;28;20048;-64
2023/07/13 11:34:38;;;;;;;5.93;5.72;;;;;;;38.57;32.46;96925.34;5066905;28;20151;-64
2023/07/13 11:37:12;;;;;;;6.10;5.90;;;;;;;38.78;32.85;96923.22;5066294;28;20045;-64
2023/07/13 11:39:43;;;;;;;5.95;5.75;;;;;;;38.75;31.64;96906.97;5066149;28;20056;-64
2023/07/13 11:42:16;;;;;;;5.97;5.78;;;;;;;38.75;32.11;96883.81;5067031;28;20499;-64
2023/07/13 11:44:48;;;;;;;5.35;5.25;;;;;;;38.99;32.21;96916.16;5065203;28;20053;-65